createdAt,value
2023-05-16T00:01:19.613Z,26.63
2023-05-16T00:03:47.175Z,24.57
2023-05-16T00:06:15.649Z,28.43
2023-05-16T00:08:43.188Z,24.10
2023-05-16T00:11:10.645Z,25.03
2023-05-16T00:13:39.135Z,23.90
2023-05-16T00:16:06.920Z,23.33
2023-05-16T00:18:37.567Z,25.50
2023-05-16T00:21:05.551Z,25.07
2023-05-16T00:23:34.499Z,24.23
2023-05-16T00:26:02.011Z,24.97
2023-05-16T00:28:30.399Z,26.97
2023-05-16T00:30:58.496Z,26.70
2023-05-16T00:33:26.025Z,26.23
2023-05-16T00:35:53.987Z,28.07
2023-05-16T00:38:21.842Z,26.33
2023-05-16T00:40:49.796Z,26.87
2023-05-16T00:43:17.297Z,28.17
2023-05-16T00:45:45.280Z,25.60
2023-05-16T00:48:14.897Z,26.73
2023-05-16T00:50:43.083Z,29.13
2023-05-16T00:53:10.987Z,32.70
2023-05-16T00:55:39.152Z,36.17
2023-05-16T00:58:09.890Z,28.60
2023-05-16T01:00:37.628Z,27.43
2023-05-16T01:03:08.660Z,28.87
2023-05-16T01:05:36.406Z,30.73
2023-05-16T01:08:04.015Z,27.80
2023-05-16T01:10:44.001Z,26.97
2023-05-16T01:13:38.884Z,28.87
2023-05-16T01:17:05.211Z,31.53
2023-05-16T01:20:15.696Z,28.83
2023-05-16T01:22:46.238Z,27.07
2023-05-16T01:56:22.967Z,30.23
2023-05-16T01:58:52.819Z,27.33
2023-05-16T02:01:20.513Z,26.27
2023-05-16T02:03:48.018Z,25.70
2023-05-16T02:06:15.442Z,23.73
2023-05-16T02:08:42.856Z,25.97
2023-05-16T02:11:10.598Z,25.60
2023-05-16T02:13:38.020Z,25.47
2023-05-16T02:16:05.830Z,25.93
2023-05-16T02:18:33.341Z,26.23
2023-05-16T02:21:00.936Z,27.80
2023-05-16T02:23:28.401Z,26.33
2023-05-16T02:25:56.070Z,29.13
2023-05-16T02:28:23.743Z,25.37
2023-05-16T02:30:59.619Z,27.47
2023-05-16T02:33:28.634Z,25.93
2023-05-16T02:35:59.092Z,26.27
2023-05-16T02:38:27.356Z,26.90
2023-05-16T02:40:56.513Z,26.83
2023-05-16T02:43:23.985Z,28.13
2023-05-16T02:45:51.679Z,27.23
2023-05-16T02:48:19.158Z,26.20
2023-05-16T02:50:46.669Z,26.90
2023-05-16T02:53:14.230Z,25.83
2023-05-16T02:55:42.055Z,31.20
2023-05-16T02:58:09.576Z,27.00
2023-05-16T03:00:37.439Z,28.10
2023-05-16T03:03:05.875Z,25.23
2023-05-16T03:05:33.514Z,30.03
2023-05-16T03:08:01.653Z,25.23
2023-05-16T03:10:29.182Z,24.83
2023-05-16T03:12:56.649Z,24.80
2023-05-16T03:15:24.451Z,38.03
2023-05-16T03:17:52.059Z,40.60
2023-05-16T03:20:19.540Z,45.40
2023-05-16T03:22:46.938Z,29.90
2023-05-16T03:25:14.549Z,84.07
2023-05-16T03:27:41.971Z,87.27
2023-05-16T03:30:10.196Z,41.80
2023-05-16T03:32:39.811Z,35.10
2023-05-16T03:35:07.720Z,32.83
2023-05-16T03:37:35.253Z,39.83
2023-05-16T03:40:05.532Z,30.53
2023-05-16T03:42:33.117Z,35.40
2023-05-16T03:45:00.698Z,28.97
2023-05-16T03:47:31.372Z,31.67
2023-05-16T03:49:58.966Z,37.77
2023-05-16T03:52:26.613Z,28.80
2023-05-16T03:54:54.140Z,32.00
2023-05-16T03:57:21.751Z,40.37
2023-05-16T03:59:49.388Z,49.53
2023-05-16T04:02:18.774Z,32.80
2023-05-16T04:04:46.717Z,18.77
2023-05-16T04:09:41.780Z,65.33
2023-05-16T04:12:09.434Z,42.07
2023-05-16T04:14:39.041Z,44.43
2023-05-16T04:17:06.677Z,47.80
2023-05-16T04:19:34.284Z,37.00
2023-05-16T04:22:01.744Z,34.87
2023-05-16T04:24:30.504Z,36.30
2023-05-16T04:26:58.052Z,31.60
2023-05-16T04:29:25.984Z,22.03
2023-05-16T04:31:54.200Z,28.40
2023-05-16T04:34:23.324Z,21.57
2023-05-16T04:36:50.875Z,17.63
2023-05-16T04:39:18.301Z,18.23
2023-05-16T04:41:46.051Z,20.70
2023-05-16T04:44:13.480Z,17.83
2023-05-16T04:46:41.648Z,13.73
2023-05-16T04:49:11.299Z,14.70
2023-05-16T04:51:38.792Z,18.27
2023-05-16T04:54:06.359Z,14.70
2023-05-16T04:56:34.185Z,15.67
2023-05-16T04:59:01.658Z,14.60
2023-05-16T05:01:30.275Z,12.27
2023-05-16T05:03:58.048Z,13.03
2023-05-16T05:06:25.650Z,11.27
2023-05-16T05:08:55.734Z,10.80
2023-05-16T05:11:23.335Z,10.40
2023-05-16T05:13:52.894Z,12.70
2023-05-16T05:16:20.969Z,11.50
2023-05-16T05:18:48.597Z,10.50
2023-05-16T05:21:16.167Z,10.83
2023-05-16T05:23:43.691Z,10.93
2023-05-16T05:26:11.255Z,15.47
2023-05-16T05:28:39.383Z,11.70
2023-05-16T05:31:08.172Z,10.07
2023-05-16T05:33:35.896Z,11.93
2023-05-16T05:36:04.274Z,12.03
2023-05-16T05:38:31.885Z,12.33
2023-05-16T05:40:59.335Z,11.60
2023-05-16T05:43:26.849Z,9.67
2023-05-16T05:45:54.322Z,12.70
2023-05-16T05:48:22.379Z,18.20
2023-05-16T05:50:49.961Z,11.70
2023-05-16T05:53:17.461Z,10.47
2023-05-16T05:55:44.881Z,10.03
2023-05-16T05:58:12.420Z,10.73
2023-05-16T06:00:39.890Z,14.07
2023-05-16T06:03:07.359Z,9.03
2023-05-16T06:05:34.822Z,20.07
2023-05-16T06:08:02.398Z,8.53
2023-05-16T06:10:30.034Z,8.60
2023-05-16T06:12:57.557Z,9.37
2023-05-16T06:15:27.182Z,7.80
2023-05-16T06:17:54.973Z,9.20
2023-05-16T06:20:22.420Z,11.83
2023-05-16T06:22:49.980Z,26.37
2023-05-16T06:25:17.695Z,14.33
2023-05-16T06:27:45.321Z,11.83
2023-05-16T06:30:13.202Z,8.23
2023-05-16T06:32:41.034Z,8.20
2023-05-16T06:35:09.869Z,11.43
2023-05-16T06:37:37.437Z,22.00
2023-05-16T06:40:05.701Z,9.57
2023-05-16T06:42:33.272Z,11.10
2023-05-16T06:45:01.139Z,13.20
2023-05-16T06:47:28.602Z,10.93
2023-05-16T06:49:56.306Z,8.63
2023-05-16T06:52:23.816Z,11.10
2023-05-16T06:54:52.157Z,9.20
2023-05-16T06:57:19.678Z,20.40
2023-05-16T06:59:47.162Z,9.10
2023-05-16T07:02:14.667Z,11.93
2023-05-16T07:04:42.675Z,10.70
2023-05-16T07:07:10.258Z,10.97
2023-05-16T07:09:37.919Z,13.67
2023-05-16T07:12:06.425Z,9.40
2023-05-16T07:14:33.964Z,12.70
2023-05-16T07:17:02.098Z,9.30
2023-05-16T07:19:29.890Z,10.63
2023-05-16T07:21:57.354Z,9.77
2023-05-16T07:24:24.932Z,8.77
2023-05-16T07:26:52.370Z,10.40
2023-05-16T07:29:20.019Z,15.33
2023-05-16T07:31:47.546Z,9.10
2023-05-16T07:34:15.024Z,9.00
2023-05-16T07:36:44.972Z,10.80
2023-05-16T07:39:12.459Z,12.23
2023-05-16T07:41:39.891Z,12.37
2023-05-16T07:44:07.422Z,10.60
2023-05-16T07:46:35.217Z,18.30
2023-05-16T07:49:02.877Z,10.47
2023-05-16T07:51:30.644Z,12.10
2023-05-16T07:53:58.159Z,37.30
2023-05-16T07:56:25.984Z,72.50
2023-05-16T07:58:53.850Z,10.73
2023-05-16T08:01:21.854Z,10.27
2023-05-16T08:03:53.713Z,10.97
2023-05-16T08:06:21.314Z,12.83
2023-05-16T08:08:48.868Z,24.87
2023-05-16T08:11:16.409Z,13.57
2023-05-16T08:13:44.028Z,10.43
2023-05-16T08:16:11.904Z,10.30
2023-05-16T08:18:39.618Z,10.33
2023-05-16T08:21:07.166Z,8.70
2023-05-16T08:23:34.950Z,10.63
2023-05-16T08:26:03.156Z,10.27
2023-05-16T08:28:31.258Z,16.67
2023-05-16T08:30:58.722Z,10.40
2023-05-16T08:33:26.502Z,11.33
2023-05-16T08:35:53.973Z,12.60
2023-05-16T08:38:21.588Z,14.27
2023-05-16T08:40:49.047Z,12.50
2023-05-16T08:43:16.809Z,13.53
2023-05-16T08:45:44.622Z,10.93
2023-05-16T08:48:12.464Z,10.70
2023-05-16T08:50:42.757Z,13.23
2023-05-16T08:53:12.835Z,11.77
2023-05-16T08:55:42.169Z,12.50
2023-05-16T08:58:09.978Z,11.40
2023-05-16T09:00:37.616Z,13.23
2023-05-16T09:03:06.630Z,11.25
2023-05-16T09:05:34.418Z,9.15
2023-05-16T09:08:02.005Z,11.27
2023-05-16T09:10:29.631Z,11.73
2023-05-16T09:12:57.156Z,8.98
2023-05-16T09:15:24.819Z,9.13
2023-05-16T09:17:52.671Z,9.32
2023-05-16T09:20:21.677Z,12.05
2023-05-16T09:23:00.307Z,10.55
2023-05-16T09:25:32.321Z,12.75
2023-05-16T09:28:02.871Z,11.30
2023-05-16T09:30:37.186Z,8.45
2023-05-16T09:33:08.215Z,10.25
2023-05-16T09:35:45.022Z,12.73
2023-05-16T09:38:18.056Z,7.55
2023-05-16T09:40:48.931Z,10.70
2023-05-16T09:43:18.213Z,9.50
2023-05-16T09:45:48.526Z,12.32
2023-05-16T09:48:18.100Z,9.93
2023-05-16T09:50:54.605Z,8.00
2023-05-16T09:53:30.929Z,11.02
2023-05-16T09:56:12.906Z,12.15
2023-05-16T09:58:42.744Z,9.35
2023-05-16T10:01:11.735Z,11.63
2023-05-16T10:03:42.532Z,14.35
2023-05-16T10:06:11.370Z,9.07
2023-05-16T10:08:43.790Z,11.95
2023-05-16T10:11:12.506Z,8.93
2023-05-16T10:13:40.635Z,8.88
2023-05-16T10:16:13.226Z,9.23
2023-05-16T10:18:44.101Z,8.07
2023-05-16T10:21:17.076Z,8.77
2023-05-16T10:23:48.845Z,8.87
2023-05-16T10:26:18.387Z,15.73
2023-05-16T10:28:46.555Z,35.00
2023-05-16T10:31:16.224Z,10.48
2023-05-16T10:33:43.999Z,13.30
2023-05-16T10:36:12.685Z,10.38
2023-05-16T10:38:41.187Z,12.32
2023-05-16T10:41:09.688Z,7.93
2023-05-16T10:43:37.319Z,8.82
2023-05-16T10:46:07.797Z,9.40
2023-05-16T10:48:40.858Z,8.98
2023-05-16T10:51:23.037Z,23.48
2023-05-16T10:53:55.430Z,10.57
2023-05-16T10:56:28.706Z,14.25
2023-05-16T10:58:57.035Z,11.35
2023-05-16T11:01:30.157Z,10.05
2023-05-16T11:04:00.574Z,6.53
2023-05-16T11:06:44.810Z,5.55
2023-05-16T11:09:13.499Z,6.38
2023-05-16T11:11:53.403Z,12.82
2023-05-16T11:14:26.994Z,12.05
2023-05-16T11:17:15.558Z,9.32
2023-05-16T11:19:59.389Z,8.07
2023-05-16T11:22:30.061Z,5.35
2023-05-16T11:25:01.316Z,13.60
2023-05-16T11:27:45.188Z,12.25
2023-05-16T11:30:16.227Z,6.47
2023-05-16T11:32:45.980Z,7.30
2023-05-16T11:35:17.039Z,6.90
2023-05-16T11:37:47.132Z,30.10
2023-05-16T11:40:17.169Z,7.30
2023-05-16T11:42:48.074Z,82.90
2023-05-16T11:45:31.967Z,10.27
2023-05-16T11:48:08.415Z,13.75
2023-05-16T11:50:36.422Z,10.27
2023-05-16T11:53:04.340Z,16.23
2023-05-16T11:55:41.981Z,10.50
2023-05-16T11:58:10.472Z,6.68
2023-05-16T12:00:37.954Z,7.13
2023-05-16T12:03:06.608Z,9.35
2023-05-16T12:05:35.541Z,14.13
2023-05-16T12:08:04.951Z,22.42
2023-05-16T12:10:34.954Z,17.23
2023-05-16T12:13:03.676Z,9.50
2023-05-16T12:15:31.689Z,10.68
2023-05-16T12:17:59.689Z,9.88
2023-05-16T12:20:27.510Z,11.75
2023-05-16T12:22:59.204Z,13.82
2023-05-16T12:25:32.324Z,47.30
2023-05-16T12:28:05.106Z,13.65
2023-05-16T12:30:33.955Z,7.93
2023-05-16T12:33:07.821Z,11.85
2023-05-16T12:35:40.829Z,6.45
2023-05-16T12:38:13.935Z,7.80
2023-05-16T12:40:44.050Z,11.75
2023-05-16T12:43:21.138Z,9.30
2023-05-16T12:45:58.500Z,10.57
2023-05-16T12:48:39.398Z,24.38
2023-05-16T12:51:13.748Z,22.25
2023-05-16T12:53:57.603Z,12.43
2023-05-16T12:56:29.384Z,13.80
2023-05-16T12:58:57.509Z,11.40
2023-05-16T13:01:25.028Z,13.30
2023-05-16T13:03:52.790Z,11.30
2023-05-16T13:06:20.823Z,13.05
2023-05-16T13:08:50.086Z,13.50
2023-05-16T13:11:17.722Z,15.68
2023-05-16T13:13:45.347Z,13.48
2023-05-16T13:16:13.046Z,11.02
2023-05-16T13:18:40.789Z,15.35
2023-05-16T13:21:08.346Z,15.13
2023-05-16T13:23:35.885Z,13.80
2023-05-16T13:26:03.881Z,11.52
2023-05-16T13:28:32.213Z,13.88
2023-05-16T13:31:00.738Z,15.38
2023-05-16T13:33:28.498Z,19.67
2023-05-16T13:35:56.682Z,16.50
2023-05-16T13:38:24.142Z,13.95
2023-05-16T13:40:51.616Z,14.27
2023-05-16T13:43:19.633Z,12.80
2023-05-16T13:45:47.245Z,13.20
2023-05-16T13:48:15.030Z,12.00
2023-05-16T13:50:44.171Z,14.30
2023-05-16T13:53:12.309Z,11.82
2023-05-16T13:55:40.138Z,13.70
2023-05-16T13:58:07.699Z,14.10
2023-05-16T14:00:44.316Z,11.85
2023-05-16T14:03:13.627Z,16.02
2023-05-16T14:05:41.589Z,14.75
2023-05-16T14:08:09.057Z,13.23
2023-05-16T14:10:38.017Z,15.27
2023-05-16T14:13:06.129Z,12.90
2023-05-16T14:15:33.656Z,13.60
2023-05-16T14:18:01.329Z,12.32
2023-05-16T14:20:28.813Z,16.23
2023-05-16T14:22:59.496Z,13.80
2023-05-16T14:25:27.269Z,13.52
2023-05-16T14:27:55.064Z,12.52
2023-05-16T14:30:22.792Z,14.43
2023-05-16T14:32:50.498Z,15.53
2023-05-16T14:35:19.370Z,12.57
2023-05-16T14:37:46.895Z,16.27
2023-05-16T14:40:14.417Z,13.77
2023-05-16T14:42:41.942Z,12.23
2023-05-16T14:45:10.824Z,15.10
2023-05-16T14:47:38.417Z,15.48
2023-05-16T14:50:07.208Z,14.10
2023-05-16T14:52:34.818Z,12.90
2023-05-16T14:55:02.349Z,19.35
2023-05-16T14:57:29.821Z,17.10
2023-05-16T14:59:57.439Z,16.35
2023-05-16T15:02:27.024Z,14.65
2023-05-16T15:04:57.141Z,15.32
2023-05-16T15:07:26.211Z,12.77
2023-05-16T15:09:53.757Z,14.90
2023-05-16T15:12:23.240Z,16.50
2023-05-16T15:14:50.822Z,15.75
2023-05-16T15:17:18.513Z,16.85
2023-05-16T15:19:50.073Z,16.23
2023-05-16T15:22:17.622Z,15.02
2023-05-16T15:24:45.434Z,16.45
2023-05-16T15:27:13.092Z,13.83
2023-05-16T15:29:43.887Z,20.63
2023-05-16T15:32:13.816Z,17.00
2023-05-16T15:35:01.988Z,13.50
2023-05-16T15:37:29.683Z,17.80
2023-05-16T15:39:57.247Z,16.80
2023-05-16T15:42:25.422Z,18.80
2023-05-16T15:44:54.529Z,15.80
2023-05-16T15:47:24.432Z,15.77
2023-05-16T15:49:52.019Z,15.73
2023-05-16T15:52:21.766Z,17.33
2023-05-16T15:54:50.536Z,15.10
2023-05-16T15:57:19.226Z,19.53
2023-05-16T15:59:46.939Z,14.90
2023-05-16T16:02:14.589Z,16.67
2023-05-16T16:04:42.517Z,18.03
2023-05-16T16:07:11.417Z,19.20
2023-05-16T16:09:39.027Z,16.10
2023-05-16T16:12:07.371Z,17.57
2023-05-16T16:14:35.053Z,17.40
2023-05-16T16:17:04.990Z,14.03
2023-05-16T16:19:32.930Z,13.10
2023-05-16T16:22:00.614Z,20.87
2023-05-16T16:24:28.272Z,19.27
2023-05-16T16:26:55.787Z,16.33
2023-05-16T16:29:26.121Z,21.07
2023-05-16T16:31:53.885Z,13.83
2023-05-16T16:34:23.404Z,15.73
2023-05-16T16:36:51.270Z,14.57
2023-05-16T16:39:18.807Z,17.27
2023-05-16T16:41:46.563Z,16.50
2023-05-16T16:44:14.308Z,16.40
2023-05-16T16:46:43.944Z,17.53
2023-05-16T16:49:13.667Z,16.67
2023-05-16T16:51:41.901Z,16.90
2023-05-16T16:54:09.450Z,19.15
2023-05-16T16:56:37.623Z,19.95
2023-05-16T16:59:05.283Z,26.05
2023-05-16T17:01:32.988Z,24.80
2023-05-16T17:04:02.111Z,23.35
2023-05-16T17:06:31.461Z,26.88
2023-05-16T17:09:03.621Z,30.63
2023-05-16T17:11:36.081Z,28.88
2023-05-16T17:14:08.686Z,23.50
2023-05-16T17:16:36.754Z,18.55
2023-05-16T17:19:08.009Z,20.52
2023-05-16T17:21:37.068Z,28.73
2023-05-16T17:24:05.535Z,19.83
2023-05-16T17:26:33.557Z,28.20
2023-05-16T17:29:01.540Z,22.88
2023-05-16T17:31:29.243Z,26.20
2023-05-16T17:33:58.309Z,19.73
2023-05-16T17:36:26.352Z,23.23
2023-05-16T17:38:53.956Z,26.90
2023-05-16T17:41:24.433Z,26.63
2023-05-16T17:43:51.939Z,20.60
2023-05-16T17:46:19.481Z,19.40
2023-05-16T17:48:47.506Z,20.13
2023-05-16T17:51:15.091Z,21.57
2023-05-16T17:53:45.188Z,23.47
2023-05-16T17:56:12.810Z,24.70
2023-05-16T17:58:40.493Z,23.13
2023-05-16T18:01:09.388Z,25.80
2023-05-16T18:03:40.101Z,25.27
2023-05-16T18:06:08.556Z,30.77
2023-05-16T18:08:36.745Z,28.37
2023-05-16T18:11:04.272Z,28.67
2023-05-16T18:13:32.981Z,32.83
2023-05-16T18:16:03.518Z,31.27
2023-05-16T18:18:31.937Z,36.17
2023-05-16T18:21:03.139Z,34.77
2023-05-16T18:23:31.585Z,36.80
2023-05-16T18:25:59.575Z,37.97
2023-05-16T18:28:27.554Z,38.50
2023-05-16T18:30:55.781Z,35.27
2023-05-16T18:33:23.908Z,36.10
2023-05-16T18:35:53.146Z,41.30
2023-05-16T18:38:32.164Z,35.10
2023-05-16T18:41:01.468Z,34.83
2023-05-16T18:43:30.023Z,42.70
2023-05-16T18:45:58.037Z,38.70
2023-05-16T18:48:26.294Z,39.27
2023-05-16T18:50:58.659Z,37.27
2023-05-16T18:53:27.585Z,35.20
2023-05-16T18:55:56.815Z,43.37
2023-05-16T18:58:25.933Z,39.07
2023-05-16T19:00:59.551Z,35.13
2023-05-16T19:03:30.158Z,35.13
2023-05-16T19:05:58.297Z,36.17
2023-05-16T19:08:31.309Z,36.23
2023-05-16T19:11:07.709Z,36.23
2023-05-16T19:13:36.597Z,37.33
2023-05-16T19:16:05.453Z,37.77
2023-05-16T19:18:36.104Z,41.20
2023-05-16T19:21:04.089Z,39.00
2023-05-16T19:23:32.121Z,38.67
2023-05-16T19:26:00.722Z,37.73
2023-05-16T19:28:31.536Z,37.87
2023-05-16T19:31:00.100Z,41.60
2023-05-16T19:33:53.048Z,41.73
2023-05-16T19:36:21.828Z,41.73
2023-05-16T19:39:12.587Z,40.60
2023-05-16T19:41:41.010Z,36.17
2023-05-16T19:44:09.013Z,36.57
2023-05-16T19:46:37.560Z,36.57
2023-05-16T19:49:06.761Z,39.13
2023-05-16T19:51:41.769Z,38.83
2023-05-16T19:54:10.669Z,38.03
2023-05-16T19:56:38.729Z,39.77
2023-05-16T19:59:07.365Z,42.73
2023-05-16T20:01:36.149Z,37.90
2023-05-16T20:04:05.687Z,38.17
2023-05-16T20:06:33.491Z,42.37
2023-05-16T20:09:01.231Z,36.70
2023-05-16T20:11:29.423Z,36.37
2023-05-16T20:14:00.324Z,34.73
2023-05-16T20:16:28.761Z,35.30
2023-05-16T20:18:56.554Z,35.27
2023-05-16T20:21:26.653Z,32.60
2023-05-16T20:23:54.727Z,37.63
2023-05-16T20:26:23.936Z,32.73
2023-05-16T20:29:11.712Z,32.00
2023-05-16T20:31:43.794Z,32.40
2023-05-16T20:34:11.994Z,31.73
2023-05-16T20:36:40.696Z,32.77
2023-05-16T20:39:11.453Z,32.87
2023-05-16T20:41:40.554Z,31.87
2023-05-16T20:44:08.177Z,31.03
2023-05-16T20:46:37.145Z,29.80
2023-05-16T20:49:05.909Z,30.40
2023-05-16T20:51:33.984Z,30.73
2023-05-16T20:54:03.076Z,31.13
2023-05-16T20:56:30.635Z,31.37
2023-05-16T20:58:58.168Z,32.77
2023-05-16T21:01:25.843Z,31.50
2023-05-16T21:03:53.404Z,32.27
2023-05-16T21:06:21.504Z,30.40
2023-05-16T21:08:49.139Z,30.20
2023-05-16T21:11:17.093Z,31.13
2023-05-16T21:13:47.781Z,32.53
2023-05-16T21:16:15.946Z,25.50
2023-05-16T21:18:43.832Z,25.60
2023-05-16T21:21:12.113Z,23.93
2023-05-16T21:23:39.649Z,24.03
2023-05-16T21:26:07.379Z,25.10
2023-05-16T21:28:42.588Z,30.27
2023-05-16T21:31:14.020Z,30.10
2023-05-16T21:33:43.054Z,31.13
2023-05-16T21:36:10.906Z,32.80
2023-05-16T21:38:38.422Z,33.23
2023-05-16T21:41:06.334Z,32.30
2023-05-16T21:43:33.911Z,37.23
2023-05-16T21:46:01.698Z,32.13
2023-05-16T21:48:29.322Z,31.30
2023-05-16T21:50:56.916Z,30.33
2023-05-16T21:53:26.333Z,24.73
2023-05-16T21:55:54.971Z,19.57
2023-05-16T21:58:23.884Z,15.83
2023-05-16T22:00:51.477Z,15.90
2023-05-16T22:03:21.057Z,14.20
2023-05-16T22:05:49.041Z,16.70
2023-05-16T22:08:16.712Z,11.53
2023-05-16T22:10:44.390Z,12.90
2023-05-16T22:13:11.905Z,9.57
2023-05-16T22:15:40.949Z,4.23
2023-05-16T22:18:10.447Z,4.93
2023-05-16T22:20:38.266Z,6.03
2023-05-16T22:23:06.086Z,3.80
2023-05-16T22:25:33.654Z,3.67
2023-05-16T22:28:01.263Z,3.60
2023-05-16T22:30:29.259Z,6.23
2023-05-16T22:32:58.041Z,2.53
2023-05-16T22:35:27.601Z,4.83
2023-05-16T22:37:55.335Z,1.57
2023-05-16T22:40:22.785Z,10.37
2023-05-16T22:42:50.325Z,11.63
2023-05-16T22:45:17.891Z,15.57
2023-05-16T22:47:46.708Z,9.73
2023-05-16T22:50:14.356Z,5.80
2023-05-16T22:52:41.978Z,8.30
2023-05-16T22:55:09.880Z,6.30
2023-05-16T22:57:38.017Z,4.63
2023-05-16T23:00:06.467Z,3.43
2023-05-16T23:02:34.116Z,4.37
2023-05-16T23:05:01.980Z,3.17
2023-05-16T23:07:30.290Z,1.97
2023-05-16T23:09:57.822Z,3.23
2023-05-16T23:12:26.033Z,4.30
2023-05-16T23:14:54.252Z,4.53
2023-05-16T23:17:21.803Z,6.67
2023-05-16T23:19:49.412Z,4.97
2023-05-16T23:22:16.971Z,6.87
2023-05-16T23:24:44.458Z,8.13
2023-05-16T23:27:11.963Z,4.90
2023-05-16T23:29:39.475Z,3.90
2023-05-16T23:32:07.417Z,3.90
2023-05-16T23:34:34.875Z,7.47
2023-05-16T23:37:02.362Z,7.07
2023-05-16T23:39:29.941Z,16.63
2023-05-16T23:41:58.412Z,10.93
2023-05-16T23:44:25.930Z,9.30
2023-05-16T23:46:53.415Z,5.77
2023-05-16T23:49:20.884Z,6.50
2023-05-16T23:51:57.482Z,3.63
2023-05-16T23:54:27.059Z,4.00
2023-05-16T23:56:54.556Z,3.43
2023-05-16T23:59:23.030Z,8.00
